Time;durP1;ratioP1;P1;durP2;ratioP2;P2;SDS_P1;SDS_P2;PMS_P1;PMS_P2;Temp;Humidity;BMP_temperature;BMP_pressure;BME280_temperature;BME280_humidity;BME280_pressure;Samples;Min_cycle;Max_cycle;Signal;HPM_P1;HPM_P2
2022/05/16 00:00:30;;;;;;;5.43;2.35;;;;;;;16.21;56.82;100021.19;4287658;33;34695;-81
2022/05/16 00:03:16;;;;;;;4.80;2.42;;;;;;;16.43;55.37;100017.22;4286543;33;34958;-81
2022/05/16 00:06:03;;;;;;;6.65;3.08;;;;;;;16.57;54.72;100014.16;4296878;33;35375;-81
2022/05/16 00:08:51;;;;;;;5.43;2.58;;;;;;;16.62;55.36;100023.06;4296725;33;34035;-81
2022/05/16 00:11:38;;;;;;;4.53;2.70;;;;;;;16.43;56.32;100022.75;4296335;33;34459;-81
2022/05/16 00:14:25;;;;;;;6.25;2.80;;;;;;;16.35;56.48;100026.41;4297110;33;35046;-81
2022/05/16 00:17:13;;;;;;;5.15;2.90;;;;;;;16.28;56.27;100020.63;4297419;33;34561;-81
2022/05/16 00:20:00;;;;;;;5.37;2.50;;;;;;;16.21;56.83;100025.91;4299305;33;33761;-81
2022/05/16 00:22:46;;;;;;;7.78;2.40;;;;;;;16.35;55.33;100016.16;4298263;33;34301;-81
2022/05/16 00:25:32;;;;;;;4.80;2.30;;;;;;;16.42;54.41;100012.81;4297588;33;36165;-80
2022/05/16 00:28:18;;;;;;;6.70;3.30;;;;;;;16.49;53.69;100021.41;4300474;33;34620;-81
2022/05/16 00:31:05;;;;;;;6.35;2.60;;;;;;;16.41;53.91;100019.53;4299036;33;33980;-81
2022/05/16 00:33:52;;;;;;;4.93;2.12;;;;;;;16.16;54.93;100021.38;4301068;33;35203;-81
2022/05/16 00:36:38;;;;;;;7.93;3.00;;;;;;;16.54;52.52;100018.41;4289287;33;35143;-81
2022/05/16 00:39:24;;;;;;;7.97;2.47;;;;;;;16.57;52.52;100023.25;4300299;33;34361;-81
2022/05/16 00:42:12;;;;;;;4.12;2.10;;;;;;;16.71;51.51;100022.16;4301091;33;34467;-81
2022/05/16 00:44:58;;;;;;;5.40;2.40;;;;;;;16.74;51.73;100016.72;4298687;33;34814;-81
2022/05/16 00:47:44;;;;;;;5.85;2.40;;;;;;;16.86;51.33;100018.75;4298632;33;34525;-80
2022/05/16 00:50:32;;;;;;;5.45;2.53;;;;;;;16.90;52.50;100019.66;4298448;33;34562;-81
2022/05/16 00:53:18;;;;;;;5.50;2.47;;;;;;;16.60;53.37;100028.13;4289133;33;33068;-81
2022/05/16 00:56:05;;;;;;;4.43;2.58;;;;;;;16.76;53.49;100024.69;4300796;33;33538;-81
2022/05/16 00:58:52;;;;;;;6.53;2.28;;;;;;;16.49;54.36;100021.41;4299066;33;35676;-81
2022/05/16 01:04:49;;;;;;;7.37;2.50;;;;;;;16.69;54.32;100024.44;4298381;33;33866;-81
2022/05/16 01:07:38;;;;;;;5.50;2.87;;;;;;;16.58;55.60;100024.88;4289162;33;34584;-81
2022/05/16 01:10:25;;;;;;;4.53;2.80;;;;;;;16.50;55.81;100025.75;4300538;33;33964;-80
2022/05/16 01:13:11;;;;;;;7.35;2.92;;;;;;;16.19;56.95;100035.34;4288848;33;34489;-81
2022/05/16 01:15:59;;;;;;;5.25;2.45;;;;;;;16.01;56.87;100039.41;4294162;33;35147;-80
2022/05/16 01:18:45;;;;;;;6.75;3.22;;;;;;;15.99;55.68;100041.69;4288434;33;35632;-80
2022/05/16 01:21:38;;;;;;;7.97;2.65;;;;;;;15.94;55.98;100036.38;4299410;33;35919;-81
2022/05/16 01:24:25;;;;;;;5.55;2.75;;;;;;;16.16;54.47;100036.00;4299873;33;34322;-81
2022/05/16 01:27:12;;;;;;;6.75;2.60;;;;;;;16.36;54.08;100039.91;4289985;33;33922;-80
2022/05/16 01:29:58;;;;;;;5.15;2.47;;;;;;;16.37;54.67;100040.72;4298600;33;35481;-81
2022/05/16 01:32:45;;;;;;;5.15;2.62;;;;;;;16.40;55.86;100045.56;4295656;33;34975;-81
2022/05/16 01:35:32;;;;;;;6.22;2.90;;;;;;;16.32;55.98;100038.16;4284932;33;34783;-81
2022/05/16 01:38:23;;;;;;;6.90;2.90;;;;;;;16.14;56.37;100030.03;4297603;33;34336;-81
2022/05/16 01:41:15;;;;;;;6.50;3.10;;;;;;;15.90;57.02;100043.72;4288311;33;34162;-81
2022/05/16 01:44:02;;;;;;;6.97;3.28;;;;;;;14.80;61.57;100041.69;4295479;33;34880;-81
2022/05/16 01:46:48;;;;;;;9.27;3.17;;;;;;;15.55;59.66;100054.16;4299766;33;34443;-81
2022/05/16 01:49:35;;;;;;;6.87;3.30;;;;;;;14.91;62.02;100052.34;4298763;33;35028;-80
2022/05/16 01:52:22;;;;;;;7.00;2.95;;;;;;;14.99;62.30;100059.78;4298039;33;33640;-81
2022/05/16 01:55:08;;;;;;;7.62;2.97;;;;;;;15.19;61.64;100056.28;4289243;33;35072;-81
2022/05/16 01:57:55;;;;;;;9.15;3.20;;;;;;;16.03;58.48;100048.16;4290151;33;35458;-81
2022/05/16 02:00:42;;;;;;;5.95;3.03;;;;;;;16.14;57.54;100049.38;4299328;33;34110;-81
2022/05/16 02:03:29;;;;;;;5.15;3.03;;;;;;;16.08;58.00;100052.66;4298169;33;34373;-81
2022/05/16 02:06:16;;;;;;;8.27;3.15;;;;;;;15.87;58.73;100056.25;4287700;33;35940;-81
2022/05/16 02:09:02;;;;;;;9.63;3.53;;;;;;;15.58;60.34;100062.59;4299583;33;34720;-80
2022/05/16 02:11:49;;;;;;;6.75;3.00;;;;;;;15.39;61.12;100064.97;4290471;33;34197;-80
2022/05/16 02:14:36;;;;;;;5.32;3.08;;;;;;;15.34;61.55;100067.91;4290126;33;35466;-80
2022/05/16 02:17:23;;;;;;;8.35;3.05;;;;;;;14.98;61.91;100063.69;4299654;33;35089;-80
2022/05/16 02:20:10;;;;;;;6.68;3.00;;;;;;;15.72;59.50;100060.41;4299122;33;34152;-81
2022/05/16 02:26:01;;;;;;;5.82;2.80;;;;;;;16.00;57.84;100057.13;4290390;33;34694;-81
2022/05/16 02:28:48;;;;;;;5.87;3.00;;;;;;;16.07;58.01;100060.16;4301097;33;35039;-81
2022/05/16 02:31:34;;;;;;;6.40;2.90;;;;;;;16.05;58.44;100070.75;4299256;33;35446;-81
2022/05/16 02:34:20;;;;;;;5.43;3.05;;;;;;;16.06;58.40;100068.81;4288378;33;34484;-81
2022/05/16 02:37:07;;;;;;;7.05;3.42;;;;;;;15.90;58.71;100068.59;4289578;33;33433;-81
2022/05/16 02:39:54;;;;;;;9.63;3.37;;;;;;;15.41;60.41;100062.69;4288208;33;36075;-81
2022/05/16 02:42:40;;;;;;;4.93;3.22;;;;;;;15.47;60.27;100069.62;4298780;33;34698;-81
2022/05/16 02:45:28;;;;;;;5.22;2.97;;;;;;;15.85;58.66;100063.25;4297290;33;35023;-80
2022/05/16 02:48:14;;;;;;;7.40;3.62;;;;;;;16.12;57.89;100059.97;4297052;33;35331;-81
2022/05/16 02:51:00;;;;;;;7.28;3.37;;;;;;;16.09;58.11;100057.06;4299595;33;35667;-81
2022/05/16 02:53:46;;;;;;;8.50;3.28;;;;;;;16.12;58.89;100057.19;4298951;33;34574;-81
2022/05/16 02:56:34;;;;;;;6.05;3.10;;;;;;;15.89;59.97;100059.50;4288106;33;34307;-81
2022/05/16 02:59:20;;;;;;;7.25;3.40;;;;;;;15.85;60.41;100058.56;4298522;33;35491;-81
2022/05/16 03:02:08;;;;;;;7.12;3.40;;;;;;;15.45;61.59;100060.87;4299093;33;35036;-81
2022/05/16 03:04:54;;;;;;;7.20;3.53;;;;;;;15.50;61.86;100052.41;4288752;33;36007;-81
2022/05/16 03:07:41;;;;;;;6.37;3.62;;;;;;;15.60;61.66;100052.03;4287895;33;33763;-81
2022/05/16 03:10:28;;;;;;;7.55;3.28;;;;;;;15.74;60.24;100063.66;4298293;33;34399;-81
2022/05/16 03:13:15;;;;;;;9.07;3.40;;;;;;;15.50;61.23;100064.25;4290141;33;35009;-81
2022/05/16 03:16:02;;;;;;;7.32;3.55;;;;;;;15.27;62.71;100060.97;4283578;33;34588;-81
2022/05/16 03:18:48;;;;;;;9.15;4.10;;;;;;;15.04;63.89;100051.31;4290130;33;34128;-81
2022/05/16 03:21:35;;;;;;;9.35;3.70;;;;;;;15.27;63.33;100051.88;4285491;33;35716;-81
2022/05/16 03:24:22;;;;;;;8.50;4.97;;;;;;;15.03;64.23;100055.25;4274309;33;35936;-81
2022/05/16 03:27:09;;;;;;;8.35;4.82;;;;;;;15.71;61.67;100053.28;4273346;33;35624;-81
2022/05/16 03:29:56;;;;;;;7.20;3.60;;;;;;;15.84;61.20;100045.88;4281332;33;34278;-81
2022/05/16 03:32:42;;;;;;;8.13;4.25;;;;;;;15.71;61.58;100055.25;4283221;33;35217;-81
2022/05/16 03:35:29;;;;;;;10.88;3.83;;;;;;;15.69;61.89;100052.81;4284281;33;35932;-81
2022/05/16 03:41:21;;;;;;;7.28;3.85;;;;;;;15.14;64.35;100063.94;4283595;33;35021;-81
2022/05/16 03:44:07;;;;;;;9.60;3.85;;;;;;;15.32;63.95;100059.97;4273351;33;35248;-81
2022/05/16 03:46:54;;;;;;;10.57;4.47;;;;;;;15.33;63.85;100058.81;4284326;33;35057;-81
2022/05/16 03:49:41;;;;;;;7.72;4.47;;;;;;;15.46;63.77;100057.78;4286826;33;34651;-81
2022/05/16 03:52:28;;;;;;;29.85;9.82;;;;;;;14.77;65.20;100056.12;4283579;33;34094;-81
2022/05/16 03:55:16;;;;;;;19.12;7.28;;;;;;;15.57;63.06;100063.75;4284383;33;34341;-81
2022/05/16 03:58:03;;;;;;;12.75;5.53;;;;;;;15.46;63.67;100063.31;4285449;33;34925;-81
2022/05/16 04:00:50;;;;;;;14.85;5.60;;;;;;;15.91;62.47;100056.41;4291607;33;34101;-81
2022/05/16 04:03:37;;;;;;;15.18;6.50;;;;;;;16.09;61.86;100066.16;4274677;33;33979;-81
2022/05/16 04:06:23;;;;;;;14.68;5.97;;;;;;;16.10;62.37;100059.47;4283342;33;107273;-81
2022/05/16 04:09:10;;;;;;;12.35;5.40;;;;;;;16.15;62.89;100064.81;4290371;33;35897;-81
2022/05/16 04:11:56;;;;;;;12.07;4.70;;;;;;;15.95;63.39;100066.44;4281777;33;34674;-81
2022/05/16 04:14:42;;;;;;;12.90;4.45;;;;;;;15.99;63.85;100069.31;4308156;33;33710;-81
2022/05/16 04:17:29;;;;;;;14.10;5.10;;;;;;;15.88;64.21;100084.69;4310775;33;34713;-81
2022/05/16 04:20:17;;;;;;;10.40;4.20;;;;;;;16.05;64.14;100084.59;4312470;33;35920;-81
2022/05/16 04:23:03;;;;;;;6.45;3.92;;;;;;;16.34;63.38;100080.13;4304247;33;33531;-81
2022/05/16 04:25:50;;;;;;;10.93;4.65;;;;;;;16.47;63.26;100080.97;4314107;33;34441;-81
2022/05/16 04:28:36;;;;;;;13.00;5.12;;;;;;;16.55;62.99;100086.41;4312792;33;34619;-81
2022/05/16 04:31:23;;;;;;;12.57;3.30;;;;;;;16.76;62.64;100086.41;4314174;33;34642;-80
2022/05/16 04:34:09;;;;;;;11.40;3.60;;;;;;;16.77;58.51;100084.44;4302923;33;35514;-80
2022/05/16 04:36:56;;;;;;;11.02;4.30;;;;;;;16.88;60.17;100080.09;4314079;33;35152;-80
2022/05/16 04:39:42;;;;;;;6.62;3.10;;;;;;;17.02;59.93;100082.56;4312959;33;34175;-80
2022/05/16 04:42:41;;;;;;;6.07;3.10;;;;;;;17.13;58.20;100080.94;4314713;33;36022;-80
2022/05/16 04:45:29;;;;;;;8.60;2.50;;;;;;;17.18;56.23;100086.25;4314508;33;34719;-80
2022/05/16 04:48:15;;;;;;;5.43;2.35;;;;;;;16.91;52.29;100076.66;4313121;33;35005;-80
2022/05/16 04:51:02;;;;;;;6.62;2.40;;;;;;;17.09;52.01;100085.53;4302134;33;35537;-80
2022/05/16 04:53:48;;;;;;;6.35;2.30;;;;;;;17.29;51.19;100087.41;4313841;33;34966;-81
2022/05/16 04:56:36;;;;;;;5.70;2.08;;;;;;;17.51;51.83;100088.91;4312628;33;35161;-81
2022/05/16 04:59:22;;;;;;;5.10;2.20;;;;;;;17.51;50.56;100086.16;4304017;33;33679;-80
2022/05/16 05:02:09;;;;;;;10.15;2.33;;;;;;;17.45;48.97;100084.78;4303253;33;35669;-78
2022/05/16 05:04:55;;;;;;;3.80;1.70;;;;;;;17.58;50.35;100082.00;4303423;33;35745;-78
2022/05/16 05:07:41;;;;;;;5.10;1.98;;;;;;;17.85;47.27;100088.81;4302130;33;35193;-79
2022/05/16 05:16:38;;;;;;;7.28;2.08;;;;;;;18.19;48.65;100091.03;4311483;33;36006;-79
2022/05/16 05:19:25;;;;;;;5.10;2.00;;;;;;;18.26;47.32;100095.97;4313767;33;34790;-79
2022/05/16 05:22:12;;;;;;;4.30;1.83;;;;;;;18.39;44.74;100092.03;4303274;33;34317;-78
2022/05/16 05:24:58;;;;;;;5.55;2.05;;;;;;;18.35;44.30;100088.31;4313869;33;34494;-78
2022/05/16 05:27:46;;;;;;;3.95;1.98;;;;;;;18.68;44.47;100095.59;4314091;33;35787;-79
2022/05/16 05:30:32;;;;;;;4.80;1.92;;;;;;;18.72;43.98;100096.50;4314071;33;34249;-79
2022/05/16 05:33:19;;;;;;;8.93;1.83;;;;;;;18.71;43.75;100097.66;4313647;33;34222;-79
2022/05/16 05:36:06;;;;;;;4.32;1.90;;;;;;;18.93;42.48;100095.50;4312058;33;34846;-79
2022/05/16 05:38:52;;;;;;;3.80;1.73;;;;;;;19.22;42.55;100097.03;4312585;33;35070;-80
2022/05/16 05:41:38;;;;;;;5.78;1.87;;;;;;;19.09;41.92;100097.09;4314315;33;34725;-78
2022/05/16 05:44:25;;;;;;;5.68;1.87;;;;;;;19.19;42.57;100095.78;4312739;33;33748;-80
2022/05/16 05:47:11;;;;;;;6.15;1.70;;;;;;;18.93;42.22;100092.72;4314467;33;34556;-79
2022/05/16 05:49:59;;;;;;;7.47;1.98;;;;;;;19.00;42.99;100101.22;4313411;33;35977;-79
2022/05/16 05:52:45;;;;;;;5.72;1.52;;;;;;;19.37;42.07;100104.56;4311896;33;35527;-79
2022/05/16 05:55:32;;;;;;;6.03;1.85;;;;;;;19.54;42.11;100108.94;4314429;33;34270;-79
2022/05/16 05:58:18;;;;;;;5.93;1.90;;;;;;;19.68;40.63;100097.41;4313398;33;35613;-78
2022/05/16 06:01:06;;;;;;;5.53;2.50;;;;;;;19.67;39.84;100106.91;4303549;33;34473;-78
2022/05/16 06:03:53;;;;;;;5.05;1.85;;;;;;;19.84;39.81;100095.41;4303092;33;35216;-78
2022/05/16 06:06:40;;;;;;;5.20;1.60;;;;;;;19.97;39.48;100107.19;4314539;33;34141;-79
2022/05/16 06:09:27;;;;;;;9.75;2.28;;;;;;;20.10;39.97;100103.12;4314051;33;33497;-78
2022/05/16 06:12:13;;;;;;;4.87;2.05;;;;;;;20.05;38.90;100110.94;4312078;33;34978;-78
2022/05/16 06:15:00;;;;;;;5.03;1.80;;;;;;;20.14;38.54;100109.56;4316371;33;34956;-77
2022/05/16 06:17:47;;;;;;;4.70;1.55;;;;;;;20.08;37.73;100104.66;4302371;33;35302;-77
2022/05/16 06:20:34;;;;;;;7.97;2.15;;;;;;;20.38;38.04;100114.06;4310061;33;34626;-78
2022/05/16 06:23:21;;;;;;;4.18;1.70;;;;;;;20.52;36.81;100113.56;4313373;33;35036;-77
2022/05/16 06:26:07;;;;;;;4.00;1.85;;;;;;;20.32;37.15;100109.13;4313637;33;35056;-78
2022/05/16 06:28:54;;;;;;;6.22;1.95;;;;;;;20.17;37.34;100102.47;4312022;33;34088;-78
2022/05/16 06:31:40;;;;;;;7.15;1.65;;;;;;;20.55;37.26;100110.06;4313396;33;34237;-77
2022/05/16 06:34:26;;;;;;;7.25;1.70;;;;;;;20.67;38.33;100104.34;4315491;33;35894;-78
2022/05/16 06:37:13;;;;;;;5.70;1.73;;;;;;;20.75;37.32;100104.47;4314364;33;34664;-78
2022/05/16 06:39:59;;;;;;;5.60;1.62;;;;;;;20.99;36.57;100093.00;4315336;33;33777;-78
2022/05/16 06:42:46;;;;;;;5.65;1.70;;;;;;;20.85;36.72;100104.66;4313556;33;34658;-78
2022/05/16 06:45:32;;;;;;;5.43;1.80;;;;;;;21.03;36.42;100096.66;4313102;33;34603;-77
2022/05/16 06:48:19;;;;;;;6.43;1.80;;;;;;;20.88;37.19;100100.34;4314079;33;34628;-78
2022/05/16 06:51:06;;;;;;;4.87;1.60;;;;;;;20.97;37.43;100103.69;4314659;33;35102;-78
2022/05/16 06:53:52;;;;;;;7.97;1.75;;;;;;;21.24;36.28;100110.16;4314658;33;34198;-78
2022/05/16 06:56:38;;;;;;;7.75;2.12;;;;;;;21.17;36.28;100110.00;4314850;33;34967;-78
2022/05/16 06:59:25;;;;;;;4.57;1.70;;;;;;;21.39;36.10;100100.06;4313529;33;35535;-78
2022/05/16 07:02:11;;;;;;;8.50;1.70;;;;;;;21.36;36.94;100106.38;4314386;33;35118;-78
2022/05/16 07:04:58;;;;;;;6.80;1.80;;;;;;;20.99;37.24;100104.13;4313239;33;35572;-78
2022/05/16 07:07:44;;;;;;;6.65;1.73;;;;;;;21.14;37.13;100115.53;4314037;33;34527;-78
2022/05/16 07:10:31;;;;;;;7.80;1.98;;;;;;;20.93;37.16;100116.75;4314320;33;34840;-78
2022/05/16 07:13:18;;;;;;;7.97;1.98;;;;;;;21.53;36.88;100110.66;4302567;33;34485;-78
2022/05/16 07:16:04;;;;;;;7.45;1.85;;;;;;;21.63;36.70;100109.22;4304044;33;35543;-78
2022/05/16 07:18:51;;;;;;;7.00;1.73;;;;;;;21.89;37.28;100112.03;4313696;33;35737;-78
2022/05/16 07:21:38;;;;;;;5.75;1.52;;;;;;;22.04;35.93;100117.81;4313103;33;34206;-78
2022/05/16 07:24:25;;;;;;;4.53;1.95;;;;;;;22.24;36.74;100110.94;4312856;33;34994;-78
2022/05/16 07:30:17;;;;;;;7.15;2.25;;;;;;;22.08;37.19;100118.66;4315289;33;35888;-78
2022/05/16 07:33:03;;;;;;;8.60;1.98;;;;;;;22.56;35.81;100111.34;4316348;33;33581;-78
2022/05/16 07:35:50;;;;;;;5.97;1.80;;;;;;;22.78;34.82;100112.38;4304934;33;34153;-79
2022/05/16 07:38:37;;;;;;;4.32;1.77;;;;;;;22.99;34.64;100111.03;4304870;33;35197;-78
2022/05/16 07:41:23;;;;;;;8.50;2.22;;;;;;;22.62;34.74;100114.59;4304826;33;35876;-78
2022/05/16 07:44:10;;;;;;;5.97;1.85;;;;;;;22.88;35.12;100119.28;4315156;33;34431;-77
2022/05/16 07:46:56;;;;;;;4.07;1.37;;;;;;;22.80;34.60;100120.41;4315115;33;35134;-78
2022/05/16 07:49:42;;;;;;;6.22;1.85;;;;;;;23.19;32.78;100114.41;4315821;33;35304;-78
2022/05/16 07:52:30;;;;;;;7.00;2.20;;;;;;;23.33;31.88;100118.16;4315819;33;34897;-78
2022/05/16 07:55:22;;;;;;;5.37;1.67;;;;;;;22.77;32.86;100121.13;4313995;33;34659;-78
2022/05/16 07:58:09;;;;;;;8.80;1.60;;;;;;;23.29;33.43;100120.12;4304282;33;35151;-78
2022/05/16 08:00:56;;;;;;;12.37;3.37;;;;;;;23.23;33.07;100124.47;4304266;33;35680;-79
2022/05/16 08:03:42;;;;;;;4.70;1.80;;;;;;;23.60;33.13;100118.00;4314243;33;35025;-78
2022/05/16 08:06:29;;;;;;;6.87;1.70;;;;;;;22.78;32.18;100120.78;4303740;33;35222;-78
2022/05/16 08:12:28;;;;;;;4.68;1.83;;;;;;;23.54;31.94;100116.75;4314799;33;34619;-78
2022/05/16 08:15:14;;;;;;;5.55;1.90;;;;;;;23.89;31.21;100124.63;4315285;33;34989;-79
2022/05/16 08:18:05;;;;;;;8.05;1.95;;;;;;;23.70;31.87;100128.47;4314815;33;34666;-79
2022/05/16 08:20:52;;;;;;;8.13;2.35;;;;;;;23.68;31.27;100127.22;4314674;33;34978;-79
2022/05/16 08:23:39;;;;;;;6.28;1.90;;;;;;;23.42;31.10;100117.03;4304367;33;34696;-78
2022/05/16 08:26:25;;;;;;;7.15;2.05;;;;;;;23.31;31.36;100120.53;4304638;33;34562;-78
2022/05/16 08:29:12;;;;;;;7.30;2.22;;;;;;;23.94;32.00;100115.84;4314903;33;34594;-78
2022/05/16 08:31:58;;;;;;;5.93;2.05;;;;;;;24.29;31.87;100119.25;4314621;33;34999;-78
2022/05/16 08:34:45;;;;;;;6.03;2.03;;;;;;;24.73;29.94;100121.03;4313664;33;34682;-78
2022/05/16 08:40:56;;;;;;;9.50;2.25;;;;;;;24.95;30.58;100117.09;4314821;33;34689;-78
2022/05/16 08:43:50;;;;;;;5.22;2.17;;;;;;;25.18;30.70;100116.75;4305045;33;34164;-78
2022/05/16 08:46:44;;;;;;;6.50;2.20;;;;;;;24.81;29.39;100114.25;4314167;33;34571;-79
2022/05/16 08:49:58;;;;;;;6.55;2.22;;;;;;;24.87;30.87;100112.66;4314987;33;34940;-78
2022/05/16 08:52:52;;;;;;;4.22;2.10;;;;;;;25.28;29.23;100104.78;4315927;33;34125;-79
2022/05/16 08:55:42;;;;;;;7.62;2.33;;;;;;;25.63;31.24;100117.19;4305433;33;34088;-79
2022/05/16 08:58:33;;;;;;;6.75;2.40;;;;;;;25.45;29.57;100105.97;4305231;33;34807;-79
2022/05/16 09:01:31;;;;;;;4.10;1.98;;;;;;;26.17;30.45;100111.50;4314496;33;36049;-78
2022/05/16 09:04:30;;;;;;;5.37;2.30;;;;;;;26.07;30.61;100109.50;4306873;33;35456;-79
2022/05/16 09:07:27;;;;;;;6.05;2.40;;;;;;;26.31;27.78;100117.06;4315630;33;34368;-78
2022/05/16 09:10:21;;;;;;;9.15;3.20;;;;;;;26.67;29.71;100117.75;4313473;33;35532;-78
2022/05/16 09:13:24;;;;;;;8.73;2.62;;;;;;;26.22;27.90;100116.72;4314144;33;34512;-79
2022/05/16 09:16:44;;;;;;;4.35;2.35;;;;;;;26.23;27.24;100115.50;4314206;33;34703;-78
2022/05/16 09:19:56;;;;;;;8.23;2.67;;;;;;;26.69;28.12;100111.72;4314427;33;35006;-79
2022/05/16 09:23:07;;;;;;;7.70;2.47;;;;;;;26.14;27.22;100101.09;4315631;33;34644;-78
2022/05/16 09:26:06;;;;;;;;;;;;;;;26.32;27.75;100104.63;4304520;33;35988;-78
2022/05/16 09:29:01;;;;;;;9.05;2.47;;;;;;;26.02;27.78;100093.91;4313906;33;35718;-78
2022/05/16 09:31:49;;;;;;;4.60;2.37;;;;;;;26.72;27.82;100096.84;4304497;33;34219;-78
2022/05/16 09:34:45;;;;;;;5.93;2.60;;;;;;;27.08;27.22;100096.62;4314934;33;35571;-78
2022/05/16 09:37:31;;;;;;;4.87;2.37;;;;;;;26.60;27.57;100095.31;4314838;33;35912;-78
2022/05/16 09:40:21;;;;;;;7.65;2.92;;;;;;;26.93;26.87;100090.31;4304493;33;34341;-79
2022/05/16 09:43:14;;;;;;;8.93;2.50;;;;;;;27.12;27.55;100083.34;4313688;33;34096;-77
2022/05/16 09:46:06;;;;;;;8.65;2.72;;;;;;;26.60;26.60;100083.25;4314929;33;35593;-78
2022/05/16 09:49:21;;;;;;;4.80;2.40;;;;;;;26.83;28.24;100083.53;4304638;33;34526;-78
2022/05/16 09:52:15;;;;;;;12.27;3.03;;;;;;;26.69;26.79;100083.63;4314108;33;34638;-78
2022/05/16 09:55:10;;;;;;;5.93;2.53;;;;;;;26.94;27.67;100079.84;4304073;33;35112;-77
2022/05/16 09:57:59;;;;;;;10.27;2.90;;;;;;;27.57;27.92;100084.19;4303408;33;33453;-78
2022/05/16 10:00:54;;;;;;;4.82;2.55;;;;;;;27.92;25.38;100073.84;4313379;33;36011;-79
2022/05/16 10:03:47;;;;;;;7.05;3.05;;;;;;;27.27;26.31;100076.44;4303630;33;34774;-78
2022/05/16 10:06:37;;;;;;;6.32;2.75;;;;;;;27.90;27.24;100064.22;4314334;33;34167;-78
2022/05/16 10:09:32;;;;;;;10.68;3.03;;;;;;;26.83;27.50;100063.06;4303646;33;34701;-78
2022/05/16 10:12:21;;;;;;;8.18;3.05;;;;;;;26.98;26.94;100063.75;4303259;33;34815;-78
2022/05/16 10:15:08;;;;;;;6.28;2.72;;;;;;;26.75;28.72;100062.28;4303443;33;35528;-78
2022/05/16 10:17:56;;;;;;;5.90;2.97;;;;;;;27.23;28.58;100058.75;4303394;33;35120;-78
2022/05/16 10:20:47;;;;;;;6.90;2.83;;;;;;;27.27;27.14;100048.28;4313821;33;34717;-78
2022/05/16 10:23:39;;;;;;;6.70;2.90;;;;;;;27.61;28.51;100060.84;4304839;33;35949;-78
2022/05/16 10:26:30;;;;;;;7.87;2.90;;;;;;;28.09;28.20;100055.16;4303821;33;35462;-78
2022/05/16 10:29:23;;;;;;;8.65;2.97;;;;;;;28.00;27.11;100050.00;4303493;33;34997;-79
2022/05/16 10:35:56;;;;;;;7.55;2.67;;;;;;;27.72;27.75;100053.91;4313570;33;34907;-79
2022/05/16 10:39:11;;;;;;;5.53;2.85;;;;;;;28.53;27.53;100047.75;4304175;33;35546;-79
2022/05/16 10:42:05;;;;;;;4.37;2.75;;;;;;;28.38;26.64;100049.16;4312700;33;34161;-79
2022/05/16 10:45:02;;;;;;;8.27;2.67;;;;;;;28.54;26.72;100057.78;4312794;33;35678;-79
2022/05/16 10:47:57;;;;;;;9.23;3.30;;;;;;;28.47;26.66;100052.28;4301845;33;35915;-78
2022/05/16 10:50:56;;;;;;;5.20;2.70;;;;;;;28.28;25.63;100052.88;4314252;33;34321;-79
2022/05/16 10:53:55;;;;;;;8.60;2.90;;;;;;;28.07;26.06;100054.75;4302816;33;34086;-79
2022/05/16 10:57:07;;;;;;;8.60;3.33;;;;;;;28.00;27.51;100044.34;4311822;33;34342;-79
2022/05/16 11:00:13;;;;;;;9.30;3.25;;;;;;;28.51;26.08;100040.94;4313133;33;35744;-79
2022/05/16 11:03:13;;;;;;;9.30;2.90;;;;;;;28.18;26.25;100034.91;4312238;33;34983;-78
2022/05/16 11:06:04;;;;;;;5.43;3.17;;;;;;;28.61;25.67;100032.34;4303943;33;33961;-79
2022/05/16 11:09:03;;;;;;;6.60;3.28;;;;;;;28.79;27.32;100031.28;4314321;33;35705;-78
2022/05/16 11:11:55;;;;;;;7.82;3.05;;;;;;;28.85;27.71;100035.19;4303265;33;35385;-78
2022/05/16 11:15:07;;;;;;;7.70;3.25;;;;;;;29.31;25.54;100028.03;4313387;33;35582;-79
2022/05/16 11:18:15;;;;;;;6.18;3.35;;;;;;;29.51;26.15;100033.72;4303367;33;35102;-79
2022/05/16 11:21:11;;;;;;;7.95;3.33;;;;;;;29.46;23.97;100020.13;4312272;33;33491;-78
2022/05/16 11:24:20;;;;;;;8.13;3.17;;;;;;;29.01;24.72;100026.09;4313541;33;34925;-78
2022/05/16 11:27:30;;;;;;;9.85;3.20;;;;;;;29.41;24.48;100015.75;4313325;33;34713;-78
2022/05/16 11:30:21;;;;;;;8.18;3.30;;;;;;;29.54;24.52;100019.56;4313063;33;33123;-79
2022/05/16 11:33:23;;;;;;;5.40;3.15;;;;;;;28.86;24.86;100014.22;4303639;33;34663;-78
2022/05/16 11:36:39;;;;;;;7.82;3.67;;;;;;;29.04;24.87;100014.00;4312726;33;34556;-79
2022/05/16 11:39:49;;;;;;;10.38;3.53;;;;;;;29.86;25.80;100004.06;4312636;33;35855;-79
2022/05/16 11:42:48;;;;;;;6.35;3.15;;;;;;;30.02;24.86;99997.66;4303227;33;35018;-79
2022/05/16 11:46:05;;;;;;;8.10;3.35;;;;;;;30.51;24.35;99994.22;4302803;33;34734;-78
2022/05/16 11:48:58;;;;;;;6.03;3.20;;;;;;;30.23;23.97;99988.78;4311871;33;34544;-79
2022/05/16 11:52:05;;;;;;;10.20;3.42;;;;;;;29.74;24.77;99982.09;4313712;33;35485;-78
2022/05/16 11:54:59;;;;;;;6.65;3.45;;;;;;;29.91;25.16;99980.94;4312001;33;35111;-78
2022/05/16 12:00:56;;;;;;;7.87;3.37;;;;;;;29.27;26.90;99982.16;4313252;33;34924;-79
2022/05/16 12:03:47;;;;;;;6.60;3.50;;;;;;;30.69;25.12;99977.63;4312945;33;35680;-79
2022/05/16 12:06:44;;;;;;;7.30;3.30;;;;;;;30.88;24.83;99973.13;4315125;33;35217;-78
2022/05/16 12:09:31;;;;;;;8.90;3.62;;;;;;;29.76;24.41;99974.78;4304199;33;35177;-78
2022/05/16 12:12:31;;;;;;;7.32;3.95;;;;;;;27.94;27.04;99974.84;4313812;33;35912;-79
2022/05/16 12:15:26;;;;;;;7.75;3.72;;;;;;;28.22;26.37;99974.47;4313270;33;34684;-78
2022/05/16 12:18:33;;;;;;;6.65;3.45;;;;;;;29.14;25.29;99957.41;4305490;33;35112;-79
2022/05/16 12:21:38;;;;;;;7.28;3.37;;;;;;;29.16;25.53;99964.63;4305191;33;34568;-79
2022/05/16 12:24:31;;;;;;;6.25;3.85;;;;;;;30.29;25.42;99960.78;4305724;33;34497;-79
2022/05/16 12:27:27;;;;;;;7.85;3.37;;;;;;;29.51;25.33;99954.69;4316068;33;34696;-79
2022/05/16 12:30:36;;;;;;;9.40;3.62;;;;;;;29.37;26.20;99959.38;4304752;33;34189;-79
2022/05/16 12:33:26;;;;;;;9.85;3.95;;;;;;;29.53;28.11;99949.41;4315318;33;35580;-79
2022/05/16 12:36:15;;;;;;;7.93;3.65;;;;;;;30.39;26.25;99939.94;4315871;33;34644;-79
2022/05/16 12:39:32;;;;;;;11.65;3.92;;;;;;;31.09;24.81;99935.03;4304485;33;35494;-79
2022/05/16 12:42:25;;;;;;;8.98;3.85;;;;;;;31.13;23.40;99921.56;4315989;33;34080;-79
2022/05/16 12:45:37;;;;;;;7.78;3.75;;;;;;;30.52;24.60;99927.97;4315073;33;35617;-79
2022/05/16 12:48:48;;;;;;;7.53;3.47;;;;;;;29.98;24.55;99912.19;4315001;33;34868;-79
2022/05/16 12:51:50;;;;;;;9.40;3.92;;;;;;;31.23;25.25;99909.19;4317246;33;35870;-79
2022/05/16 12:55:12;;;;;;;7.43;3.72;;;;;;;29.65;25.70;99905.62;4304879;33;34054;-79
2022/05/16 12:58:16;;;;;;;7.37;3.75;;;;;;;30.79;25.93;99897.38;4305557;33;34551;-79
2022/05/16 13:01:29;;;;;;;7.25;3.67;;;;;;;31.09;23.01;99892.59;4316070;33;35595;-79
2022/05/16 13:04:43;;;;;;;8.40;4.10;;;;;;;29.71;25.30;99886.94;4304581;33;35667;-79
2022/05/16 13:07:52;;;;;;;6.78;3.30;;;;;;;30.40;24.76;99892.72;4313911;33;34213;-79
2022/05/16 13:10:53;;;;;;;4.93;3.35;;;;;;;31.49;24.04;99873.28;4315022;33;34596;-79
2022/05/16 13:14:06;;;;;;;6.15;3.87;;;;;;;29.84;25.46;99879.41;4315013;33;34953;-79
2022/05/16 13:16:55;;;;;;;10.07;3.45;;;;;;;30.11;26.01;99875.56;4311297;33;34297;-80
2022/05/16 13:19:44;;;;;;;8.13;3.62;;;;;;;30.80;24.79;99882.03;4302772;33;33760;-79
2022/05/16 13:22:32;;;;;;;8.50;3.55;;;;;;;30.01;24.37;99877.44;4301920;33;34221;-79
2022/05/16 13:25:20;;;;;;;7.15;3.85;;;;;;;30.19;24.95;99871.34;4310988;33;35914;-79
2022/05/16 13:31:33;;;;;;;6.18;3.15;;;;;;;32.47;24.86;99871.94;4311773;33;34707;-80
2022/05/16 13:34:51;;;;;;;6.05;3.37;;;;;;;31.44;23.02;99862.50;4304006;33;35450;-80
2022/05/16 13:37:46;;;;;;;6.80;3.70;;;;;;;33.07;22.05;99856.94;4311395;33;36023;-80
2022/05/16 13:40:39;;;;;;;8.85;3.80;;;;;;;31.29;24.22;99861.31;4303048;33;34081;-80
2022/05/16 13:43:27;;;;;;;8.15;3.25;;;;;;;32.40;24.03;99855.91;4302713;33;34203;-80
2022/05/16 13:46:14;;;;;;;12.40;3.70;;;;;;;32.08;23.36;99851.31;4313444;33;34308;-81
2022/05/16 13:49:06;;;;;;;7.85;3.10;;;;;;;30.40;24.41;99853.94;4312258;33;34967;-80
2022/05/16 13:51:53;;;;;;;4.95;2.87;;;;;;;31.63;25.00;99849.41;4302426;33;34183;-80